Time;durP1;ratioP1;P1;durP2;ratioP2;P2;SDS_P1;SDS_P2;PMS_P1;PMS_P2;Temp;Humidity;BMP_temperature;BMP_pressure;BME280_temperature;BME280_humidity;BME280_pressure;Samples;Min_cycle;Max_cycle;Signal;HPM_P1;HPM_P2
2021/03/08 00:02:05;;;;;;;2.20;2.10;;;24.40;47.40;;;;;;5093358;28;20439;-59
2021/03/08 00:04:32;;;;;;;2.10;2.00;;;24.40;47.20;;;;;;5093429;28;20435;-59
2021/03/08 00:06:58;;;;;;;2.00;1.80;;;24.40;47.30;;;;;;5093294;28;20447;-61
2021/03/08 00:09:25;;;;;;;1.97;1.87;;;24.40;47.30;;;;;;5093246;28;20504;-59
2021/03/08 00:11:51;;;;;;;1.90;1.80;;;24.40;47.40;;;;;;5093340;28;20466;-71
2021/03/08 00:14:17;;;;;;;1.87;1.77;;;24.40;47.40;;;;;;5093211;28;20450;-70
2021/03/08 00:16:44;;;;;;;2.10;1.90;;;24.50;47.40;;;;;;5093114;28;20504;-72
2021/03/08 00:19:10;;;;;;;2.07;1.87;;;24.40;47.30;;;;;;5093325;28;20438;-71
2021/03/08 00:21:36;;;;;;;2.10;2.00;;;24.40;47.30;;;;;;5093226;28;20459;-72
2021/03/08 00:24:03;;;;;;;1.90;1.80;;;24.40;47.40;;;;;;5093099;28;20772;-70
2021/03/08 00:26:30;;;;;;;2.20;2.10;;;24.40;47.20;;;;;;5093056;28;20435;-71
2021/03/08 00:28:56;;;;;;;2.20;2.10;;;24.40;47.20;;;;;;5092908;28;20949;-68
2021/03/08 00:31:23;;;;;;;2.53;2.33;;;24.40;47.30;;;;;;5092982;28;20486;-70
2021/03/08 00:33:49;;;;;;;1.93;1.83;;;24.40;47.20;;;;;;5092997;28;20438;-69
2021/03/08 00:36:15;;;;;;;1.97;1.83;;;24.30;47.20;;;;;;5093038;28;20439;-71
2021/03/08 00:38:41;;;;;;;2.13;1.93;;;24.40;47.40;;;;;;5092959;28;20446;-69
2021/03/08 00:41:08;;;;;;;2.30;2.20;;;24.40;47.40;;;;;;5092942;28;20442;-71
2021/03/08 00:43:35;;;;;;;1.80;1.70;;;24.40;47.30;;;;;;5092914;28;20445;-69
2021/03/08 00:46:01;;;;;;;1.70;1.60;;;24.30;47.30;;;;;;5092942;28;20476;-72
2021/03/08 00:48:27;;;;;;;1.87;1.77;;;24.30;47.90;;;;;;5092943;28;20446;-71
2021/03/08 00:50:54;;;;;;;2.00;1.90;;;24.30;47.20;;;;;;5092765;28;20486;-70
2021/03/08 00:53:20;;;;;;;1.83;1.73;;;24.30;47.30;;;;;;5092788;28;20447;-71
2021/03/08 00:55:46;;;;;;;2.00;1.90;;;24.30;47.20;;;;;;5092769;28;20439;-71
2021/03/08 00:58:12;;;;;;;1.83;1.73;;;24.30;47.30;;;;;;5092655;28;20483;-72
2021/03/08 01:00:39;;;;;;;2.17;2.07;;;24.30;47.30;;;;;;5092793;28;20449;-71
2021/03/08 01:03:06;;;;;;;2.10;1.80;;;24.30;47.20;;;;;;5092684;28;20922;-71
2021/03/08 01:05:32;;;;;;;2.40;2.20;;;24.30;47.20;;;;;;5092773;28;20446;-71
2021/03/08 01:07:58;;;;;;;2.10;2.00;;;24.30;47.20;;;;;;5092670;28;20444;-71
2021/03/08 01:10:28;;;;;;;1.87;1.77;;;24.30;47.20;;;;;;5094955;28;20488;-67
2021/03/08 01:12:55;;;;;;;1.80;1.70;;;24.30;47.20;;;;;;5096353;28;20492;-70
2021/03/08 01:15:22;;;;;;;2.10;2.00;;;24.30;47.20;;;;;;5096227;28;20446;-70
2021/03/08 01:17:49;;;;;;;2.70;2.20;;;24.30;47.20;;;;;;5096301;28;20498;-69
2021/03/08 01:20:19;;;;;;;2.23;2.13;;;24.30;47.20;;;;;;5096272;28;20438;-64
2021/03/08 01:22:46;;;;;;;1.90;1.80;;;24.30;47.30;;;;;;5096125;28;20777;-59
2021/03/08 01:25:14;;;;;;;2.03;1.93;;;24.30;47.30;;;;;;5096087;28;20801;-59
2021/03/08 01:27:41;;;;;;;1.73;1.63;;;24.30;47.20;;;;;;5095995;28;20469;-63
2021/03/08 01:30:09;;;;;;;1.80;1.70;;;24.30;47.30;;;;;;5095906;28;20486;-59
2021/03/08 01:32:35;;;;;;;2.27;1.60;;;24.30;47.50;;;;;;5096006;28;20443;-63
2021/03/08 01:35:03;;;;;;;1.87;1.77;;;24.30;47.30;;;;;;5095825;28;20432;-58
2021/03/08 01:37:30;;;;;;;2.10;1.90;;;24.30;47.20;;;;;;5095967;28;20441;-59
2021/03/08 01:39:59;;;;;;;1.97;1.87;;;24.30;47.20;;;;;;5095772;28;20519;-58
2021/03/08 01:42:25;;;;;;;2.47;2.27;;;24.30;47.20;;;;;;5095771;28;20435;-61
2021/03/08 01:44:52;;;;;;;2.00;1.90;;;24.30;47.20;;;;;;5095690;28;20448;-61
2021/03/08 01:47:18;;;;;;;2.00;1.80;;;24.20;47.10;;;;;;5095704;28;20453;-62
2021/03/08 01:49:45;;;;;;;1.80;1.70;;;24.20;47.20;;;;;;5095781;28;20477;-59
2021/03/08 01:52:12;;;;;;;2.03;1.93;;;24.20;47.30;;;;;;5095650;28;20438;-59
2021/03/08 01:54:38;;;;;;;1.70;1.60;;;24.30;47.20;;;;;;5095491;28;20440;-58
2021/03/08 01:57:06;;;;;;;2.00;1.90;;;24.40;47.30;;;;;;5095249;28;20482;-60
2021/03/08 01:59:33;;;;;;;2.30;2.10;;;24.20;47.00;;;;;;5095432;28;20439;-59
2021/03/08 02:02:00;;;;;;;1.77;1.67;;;24.20;47.10;;;;;;5095463;28;20933;-59
2021/03/08 02:04:27;;;;;;;2.53;2.40;;;24.20;47.10;;;;;;5095452;28;20442;-61
2021/03/08 02:06:53;;;;;;;2.13;2.00;;;24.20;47.10;;;;;;5095278;28;20439;-59
2021/03/08 02:09:21;;;;;;;1.80;1.70;;;24.20;47.10;;;;;;5095183;28;20447;-59
2021/03/08 02:11:53;;;;;;;3.03;2.50;;;24.20;47.10;;;;;;5095348;28;20799;-58
2021/03/08 02:14:31;;;;;;;1.90;1.80;;;24.30;47.20;;;;;;5095341;28;20451;-59
2021/03/08 02:17:06;;;;;;;1.87;1.77;;;24.20;47.10;;;;;;5095112;28;20445;-59
2021/03/08 02:20:05;;;;;;;2.43;2.33;;;24.20;47.00;;;;;;5095076;28;20435;-59
2021/03/08 02:22:56;;;;;;;2.10;2.00;;;24.20;47.10;;;;;;5095005;28;20435;-59
2021/03/08 02:25:35;;;;;;;2.10;2.00;;;24.20;47.10;;;;;;5095002;28;20454;-58
2021/03/08 02:28:25;;;;;;;2.20;2.10;;;24.20;47.10;;;;;;5094863;28;20564;-59
2021/03/08 02:30:55;;;;;;;1.80;1.70;;;24.20;47.70;;;;;;5081626;28;20495;-59
2021/03/08 02:33:26;;;;;;;1.90;1.80;;;24.20;47.10;;;;;;5094823;28;20449;-64
2021/03/08 02:35:55;;;;;;;2.20;2.10;;;24.20;47.10;;;;;;5094685;28;20458;-59
2021/03/08 02:38:26;;;;;;;2.07;1.97;;;24.20;47.10;;;;;;5094699;28;20446;-59
2021/03/08 02:40:57;;;;;;;1.93;1.83;;;24.20;47.00;;;;;;5094617;28;20447;-59
2021/03/08 02:43:33;;;;;;;2.30;2.00;;;24.20;47.10;;;;;;5094660;28;20438;-58
2021/03/08 02:46:05;;;;;;;2.20;2.10;;;24.20;47.20;;;;;;5094557;28;20494;-59
2021/03/08 02:48:33;;;;;;;1.93;1.83;;;24.20;47.10;;;;;;5094586;28;20441;-59
2021/03/08 02:51:03;;;;;;;2.20;2.10;;;24.20;47.00;;;;;;5094515;28;20479;-70
2021/03/08 02:53:32;;;;;;;1.97;1.87;;;24.20;47.10;;;;;;5094859;28;20840;-72
2021/03/08 02:56:01;;;;;;;2.27;2.07;;;24.20;47.10;;;;;;5094419;28;20437;-72
2021/03/08 02:58:31;;;;;;;2.30;2.20;;;24.30;47.10;;;;;;5094070;28;20486;-72
2021/03/08 03:00:59;;;;;;;2.70;1.87;;;24.20;47.00;;;;;;5094329;28;20446;-71
2021/03/08 03:03:29;;;;;;;2.00;1.90;;;24.20;47.00;;;;;;5094276;28;20427;-69
2021/03/08 03:05:58;;;;;;;1.70;1.60;;;24.20;47.00;;;;;;5094252;28;20434;-71
2021/03/08 03:08:25;;;;;;;1.90;1.80;;;24.20;47.00;;;;;;5094137;28;20442;-72
2021/03/08 03:10:52;;;;;;;2.03;1.90;;;24.20;47.10;;;;;;5094068;28;20494;-72
2021/03/08 03:13:19;;;;;;;2.20;2.10;;;24.20;47.00;;;;;;5094033;28;20442;-72
2021/03/08 03:15:46;;;;;;;2.07;1.97;;;24.20;47.10;;;;;;5094131;28;20437;-72
2021/03/08 03:18:14;;;;;;;2.60;2.40;;;24.20;47.00;;;;;;5094001;28;20786;-72
2021/03/08 03:20:43;;;;;;;2.70;2.50;;;24.20;47.10;;;;;;5093886;28;20439;-70
2021/03/08 03:23:10;;;;;;;2.43;2.10;;;24.20;47.00;;;;;;5093894;28;20434;-71
2021/03/08 03:25:38;;;;;;;1.93;1.77;;;24.20;47.10;;;;;;5093762;28;20439;-58
2021/03/08 03:28:05;;;;;;;2.93;2.40;;;24.20;47.00;;;;;;5093835;28;20458;-59
2021/03/08 03:30:33;;;;;;;2.37;2.23;;;24.20;47.00;;;;;;5093739;28;20875;-69
2021/03/08 03:33:00;;;;;;;1.90;1.80;;;24.20;47.00;;;;;;5093104;28;20442;-72
2021/03/08 03:35:28;;;;;;;1.93;1.83;;;24.20;47.00;;;;;;5093587;28;20430;-70
2021/03/08 03:37:57;;;;;;;2.10;2.00;;;24.20;47.10;;;;;;5093570;28;20435;-59
2021/03/08 03:40:24;;;;;;;2.90;1.97;;;24.20;47.10;;;;;;5093558;28;20436;-59
2021/03/08 03:42:52;;;;;;;1.70;1.60;;;24.20;46.90;;;;;;5093591;28;20433;-59
2021/03/08 03:45:20;;;;;;;2.20;2.10;;;24.20;47.10;;;;;;5093801;28;20452;-59
2021/03/08 03:47:47;;;;;;;1.80;1.70;;;24.20;47.00;;;;;;5093780;28;20910;-60
2021/03/08 03:50:15;;;;;;;2.07;1.97;;;24.20;47.00;;;;;;5093354;28;20483;-58
2021/03/08 03:52:42;;;;;;;1.93;1.83;;;24.30;47.10;;;;;;5093436;28;20442;-58
2021/03/08 03:55:12;;;;;;;2.47;2.30;;;24.20;47.00;;;;;;5093373;28;20442;-71
2021/03/08 03:57:42;;;;;;;1.80;1.70;;;24.20;47.00;;;;;;5093069;28;20479;-59
2021/03/08 04:00:10;;;;;;;1.90;1.80;;;24.20;47.10;;;;;;5093326;28;20805;-59
2021/03/08 04:02:41;;;;;;;1.93;1.83;;;24.20;47.10;;;;;;5093337;28;20465;-59
2021/03/08 04:05:11;;;;;;;2.27;2.10;;;24.30;47.00;;;;;;5093288;28;20438;-59
2021/03/08 04:07:40;;;;;;;2.87;2.57;;;24.20;47.00;;;;;;5093231;28;20439;-66
2021/03/08 04:10:11;;;;;;;2.40;2.30;;;24.20;47.00;;;;;;5093214;28;20499;-63
2021/03/08 04:12:38;;;;;;;2.53;2.43;;;24.20;46.90;;;;;;5093129;28;20444;-59
2021/03/08 04:15:08;;;;;;;2.13;2.03;;;24.20;47.00;;;;;;5093465;28;20436;-59
2021/03/08 04:17:36;;;;;;;2.10;2.00;;;24.20;47.00;;;;;;5093259;28;20832;-59
2021/03/08 04:20:04;;;;;;;2.47;2.30;;;24.20;47.10;;;;;;5093211;28;20441;-59
2021/03/08 04:22:32;;;;;;;1.87;1.77;;;24.20;46.90;;;;;;5093421;28;20439;-59
2021/03/08 04:25:00;;;;;;;2.00;1.90;;;24.20;47.00;;;;;;5093094;28;20432;-63
2021/03/08 04:27:29;;;;;;;2.70;2.20;;;24.20;46.90;;;;;;5093071;28;20451;-60
2021/03/08 04:29:56;;;;;;;2.03;1.90;;;24.20;47.00;;;;;;5093033;28;20483;-59
2021/03/08 04:32:23;;;;;;;2.03;1.93;;;24.20;47.00;;;;;;5093165;28;20442;-59
2021/03/08 04:34:50;;;;;;;2.10;2.00;;;24.30;47.00;;;;;;5093201;28;20445;-59
2021/03/08 04:37:17;;;;;;;2.13;2.03;;;24.20;46.90;;;;;;5093024;28;20449;-67
2021/03/08 04:40:01;;;;;;;2.10;2.00;;;24.20;46.90;;;;;;5092871;28;20442;-64
2021/03/08 04:42:31;;;;;;;2.17;2.00;;;24.20;47.00;;;;;;5091755;28;20448;-63
2021/03/08 04:44:58;;;;;;;2.03;1.93;;;24.20;46.90;;;;;;5094640;28;20440;-70
2021/03/08 04:47:25;;;;;;;4.23;2.07;;;24.20;46.90;;;;;;5096837;28;20844;-66
2021/03/08 04:49:52;;;;;;;2.00;1.90;;;24.20;46.90;;;;;;5096706;28;20982;-65
2021/03/08 04:52:20;;;;;;;1.87;1.70;;;24.20;46.90;;;;;;5096912;28;20437;-66
2021/03/08 04:54:48;;;;;;;2.27;2.13;;;24.20;46.90;;;;;;5096667;28;20442;-67
2021/03/08 04:57:17;;;;;;;1.73;1.63;;;24.20;47.00;;;;;;5096382;28;20480;-65
2021/03/08 04:59:47;;;;;;;2.37;2.23;;;24.20;46.90;;;;;;5096570;28;20445;-67
2021/03/08 05:02:14;;;;;;;1.93;1.83;;;24.20;47.00;;;;;;5096593;28;20499;-67
2021/03/08 05:04:43;;;;;;;2.00;1.90;;;24.20;47.00;;;;;;5096458;28;20536;-63
2021/03/08 05:07:12;;;;;;;2.30;2.10;;;24.20;46.90;;;;;;5096571;28;20918;-71
2021/03/08 05:09:39;;;;;;;2.07;1.97;;;24.30;47.00;;;;;;5096284;28;20445;-62
2021/03/08 05:12:09;;;;;;;2.20;2.10;;;24.20;46.90;;;;;;5096462;28;20788;-68
2021/03/08 05:14:38;;;;;;;2.37;2.23;;;24.20;47.10;;;;;;5096273;28;20779;-71
2021/03/08 05:17:07;;;;;;;2.40;2.30;;;24.20;47.00;;;;;;5096429;28;20442;-69
2021/03/08 05:19:35;;;;;;;2.30;2.10;;;24.30;47.00;;;;;;5096187;28;20476;-64
2021/03/08 05:22:02;;;;;;;2.23;2.13;;;24.20;46.90;;;;;;5096180;28;20848;-70
2021/03/08 05:24:28;;;;;;;1.90;1.80;;;24.20;47.00;;;;;;5096110;28;20925;-66
2021/03/08 05:26:55;;;;;;;2.20;2.00;;;24.20;47.10;;;;;;5095978;28;20463;-67
2021/03/08 05:29:21;;;;;;;1.90;1.80;;;24.20;47.00;;;;;;5096108;28;20504;-67
2021/03/08 05:31:48;;;;;;;1.60;1.50;;;24.20;47.00;;;;;;5095889;28;20492;-67
2021/03/08 05:34:19;;;;;;;1.70;1.60;;;24.20;47.00;;;;;;5095946;28;20444;-63
2021/03/08 05:36:48;;;;;;;1.80;1.70;;;24.20;46.90;;;;;;5095937;28;20446;-66
2021/03/08 05:39:17;;;;;;;1.87;1.77;;;24.20;47.00;;;;;;5095898;28;20450;-71
2021/03/08 05:41:55;;;;;;;2.00;1.90;;;24.30;47.00;;;;;;5095740;28;20449;-70
2021/03/08 05:44:26;;;;;;;1.97;1.87;;;24.30;47.00;;;;;;5095891;28;20502;-72
2021/03/08 05:47:25;;;;;;;2.40;2.30;;;24.20;47.00;;;;;;5095783;28;20435;-67
2021/03/08 05:50:19;;;;;;;2.87;2.67;;;24.20;47.00;;;;;;5095707;28;20771;-61
2021/03/08 05:53:11;;;;;;;2.07;1.97;;;24.30;47.10;;;;;;5068827;28;20446;-59
2021/03/08 05:55:57;;;;;;;2.13;2.03;;;24.20;47.00;;;;;;5095114;28;20442;-61
2021/03/08 05:58:39;;;;;;;1.70;1.60;;;24.20;47.00;;;;;;5095322;28;20478;-59
2021/03/08 06:01:46;;;;;;;2.03;1.93;;;24.30;47.10;;;;;;5095244;28;20438;-68
2021/03/08 06:04:26;;;;;;;1.97;1.80;;;24.20;47.00;;;;;;5065242;28;20447;-59
2021/03/08 06:07:27;;;;;;;1.80;1.70;;;24.20;47.10;;;;;;5095407;28;20442;-59
2021/03/08 06:09:56;;;;;;;1.90;1.80;;;24.20;47.10;;;;;;5095272;28;20459;-61
2021/03/08 06:12:25;;;;;;;2.10;2.00;;;24.20;47.10;;;;;;5095412;28;20472;-60
2021/03/08 06:14:56;;;;;;;1.80;1.70;;;24.20;47.60;;;;;;5095154;28;20766;-59
2021/03/08 06:17:23;;;;;;;2.30;2.20;;;24.20;47.10;;;;;;5095230;28;20435;-58
2021/03/08 06:19:50;;;;;;;2.00;1.90;;;24.20;47.10;;;;;;5095023;28;20499;-58
2021/03/08 06:22:17;;;;;;;2.30;2.20;;;24.20;47.10;;;;;;5095022;28;20450;-59
2021/03/08 06:24:45;;;;;;;1.90;1.80;;;24.20;47.10;;;;;;5095015;28;20440;-60
2021/03/08 06:27:13;;;;;;;2.10;2.00;;;24.20;47.10;;;;;;5091814;28;20807;-59
2021/03/08 06:29:41;;;;;;;2.10;2.00;;;24.20;47.10;;;;;;5088891;28;20438;-60
2021/03/08 06:32:08;;;;;;;1.90;1.80;;;24.20;47.20;;;;;;5094980;28;20436;-68
2021/03/08 06:34:36;;;;;;;1.90;1.80;;;24.20;47.50;;;;;;5094613;28;20469;-71
2021/03/08 06:37:07;;;;;;;2.90;2.67;;;24.20;47.60;;;;;;5094630;28;20446;-70
2021/03/08 06:39:34;;;;;;;3.50;2.80;;;24.20;47.60;;;;;;5094522;28;20446;-69
2021/03/08 06:42:02;;;;;;;5.50;2.40;;;24.20;48.00;;;;;;5094596;28;20492;-69
2021/03/08 06:44:29;;;;;;;4.50;2.70;;;24.20;48.50;;;;;;5094730;28;20473;-71
2021/03/08 06:46:56;;;;;;;3.80;2.40;;;24.30;49.20;;;;;;5094778;28;20483;-69
2021/03/08 06:49:23;;;;;;;6.10;2.97;;;24.30;49.40;;;;;;5094470;28;20443;-67
2021/03/08 06:52:03;;;;;;;5.10;2.87;;;24.20;48.80;;;;;;5094367;28;20577;-66
2021/03/08 06:54:30;;;;;;;5.20;2.70;;;24.30;49.20;;;;;;5094356;28;20808;-65
2021/03/08 06:56:56;;;;;;;7.13;3.23;;;24.30;49.80;;;;;;5094070;28;20542;-67
2021/03/08 06:59:24;;;;;;;5.40;2.50;;;24.30;49.80;;;;;;5094506;28;20780;-66
2021/03/08 07:01:52;;;;;;;4.13;2.07;;;24.30;49.80;;;;;;5073681;28;20465;-65
2021/03/08 07:04:21;;;;;;;3.90;2.73;;;24.30;49.40;;;;;;5073868;28;20447;-66
2021/03/08 07:06:59;;;;;;;6.10;2.43;;;24.30;49.00;;;;;;5073157;28;20445;-66
2021/03/08 07:09:26;;;;;;;2.73;2.50;;;24.30;48.70;;;;;;5073960;28;20446;-67
2021/03/08 07:12:07;;;;;;;3.00;2.50;;;24.30;48.60;;;;;;5073685;28;20487;-67
2021/03/08 07:14:34;;;;;;;2.47;2.00;;;24.40;48.50;;;;;;5073240;28;20999;-66
2021/03/08 07:17:01;;;;;;;13.00;2.60;;;24.40;48.40;;;;;;5073296;28;20436;-66
2021/03/08 07:19:27;;;;;;;4.90;2.57;;;24.40;48.30;;;;;;5073408;28;20496;-65
2021/03/08 07:21:55;;;;;;;3.37;2.23;;;24.40;48.20;;;;;;5073826;28;20800;-66
2021/03/08 07:24:21;;;;;;;3.07;2.37;;;24.40;48.20;;;;;;5073211;28;20501;-63
2021/03/08 07:26:50;;;;;;;2.87;2.67;;;24.40;48.10;;;;;;5076773;28;21000;-64
